sensor_id;sensor_type;location;lat;lon;timestamp;P1;durP1;ratioP1;P2;durP2;ratioP2
60831;SDS011;46665;51.558;-0.448;2022-11-20T00:01:40;6.53;;;2.65;;
60831;SDS011;46665;51.558;-0.448;2022-11-20T00:04:23;4.30;;;3.90;;
60831;SDS011;46665;51.558;-0.448;2022-11-20T00:07:08;7.53;;;3.88;;
60831;SDS011;46665;51.558;-0.448;2022-11-20T00:09:53;8.40;;;2.83;;
60831;SDS011;46665;51.558;-0.448;2022-11-20T00:12:37;10.82;;;3.60;;
60831;SDS011;46665;51.558;-0.448;2022-11-20T00:15:21;7.38;;;3.53;;
60831;SDS011;46665;51.558;-0.448;2022-11-20T00:18:05;8.13;;;3.83;;
60831;SDS011;46665;51.558;-0.448;2022-11-20T00:20:48;5.28;;;3.08;;
60831;SDS011;46665;51.558;-0.448;2022-11-20T00:23:33;7.85;;;2.92;;
60831;SDS011;46665;51.558;-0.448;2022-11-20T00:26:18;6.63;;;2.67;;
60831;SDS011;46665;51.558;-0.448;2022-11-20T00:29:03;5.13;;;3.97;;
60831;SDS011;46665;51.558;-0.448;2022-11-20T00:31:47;7.82;;;3.65;;
60831;SDS011;46665;51.558;-0.448;2022-11-20T00:34:31;7.65;;;3.50;;
60831;SDS011;46665;51.558;-0.448;2022-11-20T00:37:15;5.90;;;4.30;;
60831;SDS011;46665;51.558;-0.448;2022-11-20T00:39:59;10.07;;;4.18;;
60831;SDS011;46665;51.558;-0.448;2022-11-20T00:42:43;5.88;;;4.00;;
60831;SDS011;46665;51.558;-0.448;2022-11-20T00:45:27;5.55;;;3.47;;
60831;SDS011;46665;51.558;-0.448;2022-11-20T00:48:11;20.58;;;4.68;;
60831;SDS011;46665;51.558;-0.448;2022-11-20T00:50:55;10.57;;;3.78;;
60831;SDS011;46665;51.558;-0.448;2022-11-20T00:53:39;17.35;;;4.90;;
60831;SDS011;46665;51.558;-0.448;2022-11-20T00:56:23;13.77;;;4.70;;
60831;SDS011;46665;51.558;-0.448;2022-11-20T00:59:08;13.40;;;4.32;;
60831;SDS011;46665;51.558;-0.448;2022-11-20T01:01:53;5.75;;;4.57;;
60831;SDS011;46665;51.558;-0.448;2022-11-20T01:04:37;8.15;;;4.05;;
60831;SDS011;46665;51.558;-0.448;2022-11-20T01:07:20;5.18;;;3.40;;
60831;SDS011;46665;51.558;-0.448;2022-11-20T01:10:05;12.80;;;3.55;;
60831;SDS011;46665;51.558;-0.448;2022-11-20T01:12:49;6.18;;;3.60;;
60831;SDS011;46665;51.558;-0.448;2022-11-20T01:15:53;6.90;;;3.42;;
60831;SDS011;46665;51.558;-0.448;2022-11-20T01:18:38;8.75;;;4.45;;
60831;SDS011;46665;51.558;-0.448;2022-11-20T01:21:25;6.32;;;4.55;;
60831;SDS011;46665;51.558;-0.448;2022-11-20T01:24:12;5.60;;;3.70;;
60831;SDS011;46665;51.558;-0.448;2022-11-20T01:26:58;11.75;;;4.32;;
60831;SDS011;46665;51.558;-0.448;2022-11-20T01:29:42;7.85;;;3.50;;
60831;SDS011;46665;51.558;-0.448;2022-11-20T01:32:26;4.32;;;3.47;;
60831;SDS011;46665;51.558;-0.448;2022-11-20T01:35:10;13.38;;;4.20;;
60831;SDS011;46665;51.558;-0.448;2022-11-20T01:37:53;12.30;;;4.32;;
60831;SDS011;46665;51.558;-0.448;2022-11-20T01:40:37;18.23;;;3.50;;
60831;SDS011;46665;51.558;-0.448;2022-11-20T01:43:21;10.75;;;3.40;;
60831;SDS011;46665;51.558;-0.448;2022-11-20T01:49:04;13.90;;;3.25;;
60831;SDS011;46665;51.558;-0.448;2022-11-20T01:51:56;4.97;;;3.63;;
60831;SDS011;46665;51.558;-0.448;2022-11-20T01:54:53;7.03;;;3.90;;
60831;SDS011;46665;51.558;-0.448;2022-11-20T01:57:50;7.50;;;4.22;;
60831;SDS011;46665;51.558;-0.448;2022-11-20T02:00:34;5.82;;;3.65;;
60831;SDS011;46665;51.558;-0.448;2022-11-20T02:03:19;6.43;;;3.55;;
60831;SDS011;46665;51.558;-0.448;2022-11-20T02:06:23;11.20;;;2.92;;
60831;SDS011;46665;51.558;-0.448;2022-11-20T02:09:12;6.15;;;3.83;;
60831;SDS011;46665;51.558;-0.448;2022-11-20T02:11:57;5.82;;;3.90;;
60831;SDS011;46665;51.558;-0.448;2022-11-20T02:14:42;6.47;;;2.97;;
60831;SDS011;46665;51.558;-0.448;2022-11-20T02:17:26;4.07;;;2.10;;
60831;SDS011;46665;51.558;-0.448;2022-11-20T02:20:11;6.15;;;2.92;;
60831;SDS011;46665;51.558;-0.448;2022-11-20T02:22:57;12.25;;;3.55;;
60831;SDS011;46665;51.558;-0.448;2022-11-20T02:25:47;5.25;;;2.72;;
60831;SDS011;46665;51.558;-0.448;2022-11-20T02:28:33;3.45;;;2.47;;
60831;SDS011;46665;51.558;-0.448;2022-11-20T02:31:17;4.93;;;2.85;;
60831;SDS011;46665;51.558;-0.448;2022-11-20T02:34:01;4.80;;;2.70;;
60831;SDS011;46665;51.558;-0.448;2022-11-20T02:36:45;12.18;;;4.05;;
60831;SDS011;46665;51.558;-0.448;2022-11-20T02:39:30;25.23;;;3.17;;
60831;SDS011;46665;51.558;-0.448;2022-11-20T02:42:14;4.85;;;2.80;;
60831;SDS011;46665;51.558;-0.448;2022-11-20T02:44:59;6.82;;;2.55;;
60831;SDS011;46665;51.558;-0.448;2022-11-20T02:47:43;7.65;;;2.58;;
60831;SDS011;46665;51.558;-0.448;2022-11-20T02:50:27;7.75;;;3.72;;
60831;SDS011;46665;51.558;-0.448;2022-11-20T02:53:11;5.15;;;2.92;;
60831;SDS011;46665;51.558;-0.448;2022-11-20T02:55:55;3.30;;;2.88;;
60831;SDS011;46665;51.558;-0.448;2022-11-20T02:58:38;9.60;;;2.63;;
60831;SDS011;46665;51.558;-0.448;2022-11-20T03:01:22;3.45;;;2.55;;
60831;SDS011;46665;51.558;-0.448;2022-11-20T03:04:06;7.47;;;3.35;;
60831;SDS011;46665;51.558;-0.448;2022-11-20T03:06:51;3.85;;;2.45;;
60831;SDS011;46665;51.558;-0.448;2022-11-20T03:09:35;7.60;;;2.35;;
60831;SDS011;46665;51.558;-0.448;2022-11-20T03:12:19;13.32;;;3.50;;
60831;SDS011;46665;51.558;-0.448;2022-11-20T03:18:37;7.97;;;3.22;;
60831;SDS011;46665;51.558;-0.448;2022-11-20T03:21:21;5.60;;;3.10;;
60831;SDS011;46665;51.558;-0.448;2022-11-20T03:24:05;8.93;;;3.03;;
60831;SDS011;46665;51.558;-0.448;2022-11-20T03:26:49;15.43;;;3.08;;
60831;SDS011;46665;51.558;-0.448;2022-11-20T03:29:34;7.53;;;2.92;;
60831;SDS011;46665;51.558;-0.448;2022-11-20T03:32:19;5.15;;;2.45;;
60831;SDS011;46665;51.558;-0.448;2022-11-20T03:35:03;3.45;;;2.65;;
60831;SDS011;46665;51.558;-0.448;2022-11-20T03:37:47;2.60;;;2.30;;
60831;SDS011;46665;51.558;-0.448;2022-11-20T03:40:33;3.55;;;2.53;;
60831;SDS011;46665;51.558;-0.448;2022-11-20T03:43:17;3.83;;;2.55;;
60831;SDS011;46665;51.558;-0.448;2022-11-20T03:46:01;4.80;;;2.38;;
60831;SDS011;46665;51.558;-0.448;2022-11-20T03:48:46;9.23;;;2.47;;
60831;SDS011;46665;51.558;-0.448;2022-11-20T03:51:34;13.25;;;2.60;;
60831;SDS011;46665;51.558;-0.448;2022-11-20T03:54:19;3.17;;;2.22;;
60831;SDS011;46665;51.558;-0.448;2022-11-20T03:57:03;2.80;;;2.00;;
60831;SDS011;46665;51.558;-0.448;2022-11-20T03:59:47;3.83;;;1.45;;
60831;SDS011;46665;51.558;-0.448;2022-11-20T04:02:31;7.03;;;2.47;;
60831;SDS011;46665;51.558;-0.448;2022-11-20T04:05:14;6.47;;;1.92;;
60831;SDS011;46665;51.558;-0.448;2022-11-20T04:07:58;6.95;;;1.70;;
60831;SDS011;46665;51.558;-0.448;2022-11-20T04:10:42;4.57;;;1.30;;
60831;SDS011;46665;51.558;-0.448;2022-11-20T04:13:26;5.20;;;1.80;;
60831;SDS011;46665;51.558;-0.448;2022-11-20T04:16:10;10.23;;;1.30;;
60831;SDS011;46665;51.558;-0.448;2022-11-20T04:18:55;3.95;;;1.33;;
60831;SDS011;46665;51.558;-0.448;2022-11-20T04:21:41;0.98;;;0.98;;
60831;SDS011;46665;51.558;-0.448;2022-11-20T04:24:25;1.60;;;1.38;;
60831;SDS011;46665;51.558;-0.448;2022-11-20T04:27:10;1.58;;;0.98;;
60831;SDS011;46665;51.558;-0.448;2022-11-20T04:29:54;1.10;;;1.00;;
60831;SDS011;46665;51.558;-0.448;2022-11-20T04:32:38;1.02;;;0.90;;
60831;SDS011;46665;51.558;-0.448;2022-11-20T04:35:22;1.35;;;1.25;;
60831;SDS011;46665;51.558;-0.448;2022-11-20T04:38:06;1.10;;;1.00;;
60831;SDS011;46665;51.558;-0.448;2022-11-20T04:40:50;3.33;;;1.30;;
60831;SDS011;46665;51.558;-0.448;2022-11-20T04:43:33;1.08;;;1.08;;
60831;SDS011;46665;51.558;-0.448;2022-11-20T04:46:18;1.45;;;0.93;;
60831;SDS011;46665;51.558;-0.448;2022-11-20T04:49:04;9.95;;;1.60;;
60831;SDS011;46665;51.558;-0.448;2022-11-20T04:51:48;1.77;;;1.17;;
60831;SDS011;46665;51.558;-0.448;2022-11-20T04:54:32;7.50;;;1.23;;
60831;SDS011;46665;51.558;-0.448;2022-11-20T04:57:16;3.70;;;1.00;;
60831;SDS011;46665;51.558;-0.448;2022-11-20T05:00:00;5.07;;;1.98;;
60831;SDS011;46665;51.558;-0.448;2022-11-20T05:02:44;1.60;;;0.98;;
60831;SDS011;46665;51.558;-0.448;2022-11-20T05:05:28;1.77;;;1.30;;
60831;SDS011;46665;51.558;-0.448;2022-11-20T05:08:12;1.15;;;1.08;;
60831;SDS011;46665;51.558;-0.448;2022-11-20T05:11:00;5.50;;;1.55;;
60831;SDS011;46665;51.558;-0.448;2022-11-20T05:13:45;3.10;;;1.20;;
60831;SDS011;46665;51.558;-0.448;2022-11-20T05:16:30;2.58;;;0.90;;
60831;SDS011;46665;51.558;-0.448;2022-11-20T05:19:14;1.63;;;1.17;;
60831;SDS011;46665;51.558;-0.448;2022-11-20T05:21:58;1.33;;;0.60;;
60831;SDS011;46665;51.558;-0.448;2022-11-20T05:24:42;0.93;;;0.73;;
60831;SDS011;46665;51.558;-0.448;2022-11-20T05:27:26;1.15;;;0.82;;
60831;SDS011;46665;51.558;-0.448;2022-11-20T05:30:10;5.68;;;1.42;;
60831;SDS011;46665;51.558;-0.448;2022-11-20T05:32:54;3.47;;;1.35;;
60831;SDS011;46665;51.558;-0.448;2022-11-20T05:35:38;9.85;;;0.80;;
60831;SDS011;46665;51.558;-0.448;2022-11-20T05:38:22;1.25;;;0.90;;
60831;SDS011;46665;51.558;-0.448;2022-11-20T05:41:13;2.58;;;0.95;;
60831;SDS011;46665;51.558;-0.448;2022-11-20T05:43:59;5.97;;;0.75;;
60831;SDS011;46665;51.558;-0.448;2022-11-20T05:46:42;1.60;;;0.80;;
60831;SDS011;46665;51.558;-0.448;2022-11-20T05:49:26;9.15;;;1.23;;
60831;SDS011;46665;51.558;-0.448;2022-11-20T05:52:10;0.90;;;0.85;;
60831;SDS011;46665;51.558;-0.448;2022-11-20T05:54:54;0.60;;;0.60;;
60831;SDS011;46665;51.558;-0.448;2022-11-20T05:57:39;1.83;;;1.38;;
60831;SDS011;46665;51.558;-0.448;2022-11-20T06:00:23;0.60;;;0.60;;
60831;SDS011;46665;51.558;-0.448;2022-11-20T06:03:07;1.95;;;0.70;;
60831;SDS011;46665;51.558;-0.448;2022-11-20T06:05:51;0.60;;;0.60;;
60831;SDS011;46665;51.558;-0.448;2022-11-20T06:08:35;2.97;;;1.08;;
60831;SDS011;46665;51.558;-0.448;2022-11-20T06:11:19;2.10;;;1.50;;
60831;SDS011;46665;51.558;-0.448;2022-11-20T06:14:02;0.60;;;0.60;;
60831;SDS011;46665;51.558;-0.448;2022-11-20T06:16:47;0.70;;;0.70;;
60831;SDS011;46665;51.558;-0.448;2022-11-20T06:19:31;0.60;;;0.60;;
60831;SDS011;46665;51.558;-0.448;2022-11-20T06:22:15;1.00;;;0.80;;
60831;SDS011;46665;51.558;-0.448;2022-11-20T06:24:58;7.68;;;1.00;;
60831;SDS011;46665;51.558;-0.448;2022-11-20T06:27:42;2.28;;;1.08;;
60831;SDS011;46665;51.558;-0.448;2022-11-20T06:30:26;0.95;;;0.90;;
60831;SDS011;46665;51.558;-0.448;2022-11-20T06:33:10;0.52;;;0.52;;
60831;SDS011;46665;51.558;-0.448;2022-11-20T06:35:58;1.88;;;0.77;;
60831;SDS011;46665;51.558;-0.448;2022-11-20T06:38:43;2.53;;;0.82;;
60831;SDS011;46665;51.558;-0.448;2022-11-20T06:41:28;0.73;;;0.73;;
60831;SDS011;46665;51.558;-0.448;2022-11-20T06:44:12;0.70;;;0.70;;
60831;SDS011;46665;51.558;-0.448;2022-11-20T06:46:56;0.77;;;0.77;;
60831;SDS011;46665;51.558;-0.448;2022-11-20T06:49:40;0.68;;;0.68;;
60831;SDS011;46665;51.558;-0.448;2022-11-20T06:52:23;2.75;;;1.02;;
60831;SDS011;46665;51.558;-0.448;2022-11-20T06:55:07;1.80;;;0.88;;
60831;SDS011;46665;51.558;-0.448;2022-11-20T06:57:51;6.90;;;1.38;;
60831;SDS011;46665;51.558;-0.448;2022-11-20T07:00:35;0.93;;;0.93;;
60831;SDS011;46665;51.558;-0.448;2022-11-20T07:03:19;0.90;;;0.90;;
60831;SDS011;46665;51.558;-0.448;2022-11-20T07:06:03;1.10;;;0.98;;
60831;SDS011;46665;51.558;-0.448;2022-11-20T07:08:50;2.60;;;1.08;;
60831;SDS011;46665;51.558;-0.448;2022-11-20T07:11:36;2.05;;;1.27;;
60831;SDS011;46665;51.558;-0.448;2022-11-20T07:14:20;1.42;;;1.33;;
60831;SDS011;46665;51.558;-0.448;2022-11-20T07:17:04;1.60;;;0.82;;
60831;SDS011;46665;51.558;-0.448;2022-11-20T07:19:47;0.80;;;0.80;;
60831;SDS011;46665;51.558;-0.448;2022-11-20T07:22:32;0.98;;;0.82;;
60831;SDS011;46665;51.558;-0.448;2022-11-20T07:25:15;0.90;;;0.90;;
60831;SDS011;46665;51.558;-0.448;2022-11-20T07:27:59;1.05;;;0.95;;
60831;SDS011;46665;51.558;-0.448;2022-11-20T07:30:49;4.47;;;1.60;;
60831;SDS011;46665;51.558;-0.448;2022-11-20T07:33:36;0.90;;;0.90;;
60831;SDS011;46665;51.558;-0.448;2022-11-20T07:36:20;2.90;;;1.00;;
60831;SDS011;46665;51.558;-0.448;2022-11-20T07:39:04;1.00;;;0.95;;
60831;SDS011;46665;51.558;-0.448;2022-11-20T07:41:48;1.13;;;1.02;;
60831;SDS011;46665;51.558;-0.448;2022-11-20T07:44:32;1.17;;;1.08;;
60831;SDS011;46665;51.558;-0.448;2022-11-20T07:47:16;3.55;;;1.13;;
60831;SDS011;46665;51.558;-0.448;2022-11-20T07:50:00;2.38;;;0.93;;
60831;SDS011;46665;51.558;-0.448;2022-11-20T07:52:44;1.40;;;1.30;;
60831;SDS011;46665;51.558;-0.448;2022-11-20T07:55:28;2.60;;;1.05;;
60831;SDS011;46665;51.558;-0.448;2022-11-20T07:58:12;0.95;;;0.90;;
60831;SDS011;46665;51.558;-0.448;2022-11-20T08:00:57;1.00;;;1.00;;
60831;SDS011;46665;51.558;-0.448;2022-11-20T08:03:41;5.53;;;1.02;;
60831;SDS011;46665;51.558;-0.448;2022-11-20T08:06:25;0.90;;;0.80;;
60831;SDS011;46665;51.558;-0.448;2022-11-20T08:09:09;1.58;;;0.88;;
60831;SDS011;46665;51.558;-0.448;2022-11-20T08:11:55;4.70;;;1.30;;
60831;SDS011;46665;51.558;-0.448;2022-11-20T08:14:57;1.42;;;1.00;;
60831;SDS011;46665;51.558;-0.448;2022-11-20T08:17:42;1.67;;;1.17;;
60831;SDS011;46665;51.558;-0.448;2022-11-20T08:20:26;0.90;;;0.80;;
60831;SDS011;46665;51.558;-0.448;2022-11-20T08:23:11;2.95;;;1.08;;
60831;SDS011;46665;51.558;-0.448;2022-11-20T08:25:55;0.95;;;0.82;;
60831;SDS011;46665;51.558;-0.448;2022-11-20T08:28:39;0.70;;;0.70;;
60831;SDS011;46665;51.558;-0.448;2022-11-20T08:31:23;1.10;;;1.00;;
60831;SDS011;46665;51.558;-0.448;2022-11-20T08:34:09;1.15;;;1.08;;
60831;SDS011;46665;51.558;-0.448;2022-11-20T08:36:53;0.68;;;0.68;;
60831;SDS011;46665;51.558;-0.448;2022-11-20T08:39:37;2.08;;;1.00;;
60831;SDS011;46665;51.558;-0.448;2022-11-20T08:42:21;1.05;;;0.75;;
60831;SDS011;46665;51.558;-0.448;2022-11-20T08:45:05;4.22;;;0.93;;
60831;SDS011;46665;51.558;-0.448;2022-11-20T08:47:49;8.85;;;0.95;;
60831;SDS011;46665;51.558;-0.448;2022-11-20T08:50:33;0.70;;;0.70;;
60831;SDS011;46665;51.558;-0.448;2022-11-20T08:53:17;6.25;;;1.17;;
60831;SDS011;46665;51.558;-0.448;2022-11-20T08:56:01;1.08;;;0.70;;
60831;SDS011;46665;51.558;-0.448;2022-11-20T08:58:45;1.10;;;1.00;;
60831;SDS011;46665;51.558;-0.448;2022-11-20T09:01:29;1.00;;;0.93;;
60831;SDS011;46665;51.558;-0.448;2022-11-20T09:04:13;1.23;;;1.10;;
60831;SDS011;46665;51.558;-0.448;2022-11-20T09:06:59;1.70;;;1.05;;
60831;SDS011;46665;51.558;-0.448;2022-11-20T09:09:43;1.77;;;0.80;;
60831;SDS011;46665;51.558;-0.448;2022-11-20T09:12:27;1.25;;;0.82;;
60831;SDS011;46665;51.558;-0.448;2022-11-20T09:15:11;0.88;;;0.88;;
60831;SDS011;46665;51.558;-0.448;2022-11-20T09:17:57;1.10;;;0.82;;
60831;SDS011;46665;51.558;-0.448;2022-11-20T09:20:42;1.48;;;0.93;;
60831;SDS011;46665;51.558;-0.448;2022-11-20T09:23:26;0.40;;;0.40;;
60831;SDS011;46665;51.558;-0.448;2022-11-20T09:26:14;7.70;;;0.52;;
60831;SDS011;46665;51.558;-0.448;2022-11-20T09:28:58;1.77;;;1.05;;
60831;SDS011;46665;51.558;-0.448;2022-11-20T09:31:42;0.90;;;0.90;;
60831;SDS011;46665;51.558;-0.448;2022-11-20T09:34:26;0.40;;;0.40;;
60831;SDS011;46665;51.558;-0.448;2022-11-20T09:37:10;1.15;;;0.73;;
60831;SDS011;46665;51.558;-0.448;2022-11-20T09:39:54;2.53;;;0.60;;
60831;SDS011;46665;51.558;-0.448;2022-11-20T09:43:21;4.78;;;1.02;;
60831;SDS011;46665;51.558;-0.448;2022-11-20T09:54:43;4.70;;;0.65;;
60831;SDS011;46665;51.558;-0.448;2022-11-20T09:57:35;1.38;;;1.13;;
60831;SDS011;46665;51.558;-0.448;2022-11-20T10:00:21;1.17;;;0.85;;
60831;SDS011;46665;51.558;-0.448;2022-11-20T10:06:00;1.95;;;0.80;;
60831;SDS011;46665;51.558;-0.448;2022-11-20T10:08:53;3.93;;;0.77;;
60831;SDS011;46665;51.558;-0.448;2022-11-20T10:12:03;2.05;;;0.80;;
60831;SDS011;46665;51.558;-0.448;2022-11-20T10:27:22;4.05;;;0.57;;
60831;SDS011;46665;51.558;-0.448;2022-11-20T10:30:20;1.75;;;0.57;;
60831;SDS011;46665;51.558;-0.448;2022-11-20T10:33:15;3.60;;;1.08;;
60831;SDS011;46665;51.558;-0.448;2022-11-20T10:39:33;0.60;;;0.50;;
60831;SDS011;46665;51.558;-0.448;2022-11-20T10:42:45;5.88;;;1.33;;
60831;SDS011;46665;51.558;-0.448;2022-11-20T10:48:27;0.40;;;0.40;;
60831;SDS011;46665;51.558;-0.448;2022-11-20T10:51:28;1.35;;;0.63;;
60831;SDS011;46665;51.558;-0.448;2022-11-20T10:57:25;7.18;;;0.68;;
60831;SDS011;46665;51.558;-0.448;2022-11-20T11:00:20;13.38;;;1.75;;
60831;SDS011;46665;51.558;-0.448;2022-11-20T11:03:13;0.50;;;0.50;;
60831;SDS011;46665;51.558;-0.448;2022-11-20T11:06:03;1.33;;;0.73;;
60831;SDS011;46665;51.558;-0.448;2022-11-20T11:08:55;3.92;;;0.95;;
60831;SDS011;46665;51.558;-0.448;2022-11-20T11:11:42;9.98;;;0.98;;
60831;SDS011;46665;51.558;-0.448;2022-11-20T11:14:26;6.20;;;1.05;;
60831;SDS011;46665;51.558;-0.448;2022-11-20T11:17:29;2.95;;;0.93;;
60831;SDS011;46665;51.558;-0.448;2022-11-20T11:20:16;6.57;;;0.90;;
60831;SDS011;46665;51.558;-0.448;2022-11-20T11:25:55;9.93;;;1.48;;
60831;SDS011;46665;51.558;-0.448;2022-11-20T11:28:41;2.10;;;1.35;;
60831;SDS011;46665;51.558;-0.448;2022-11-20T11:31:32;9.98;;;1.48;;
60831;SDS011;46665;51.558;-0.448;2022-11-20T11:34:18;4.35;;;0.88;;
60831;SDS011;46665;51.558;-0.448;2022-11-20T11:37:02;5.38;;;1.00;;
60831;SDS011;46665;51.558;-0.448;2022-11-20T11:39:47;7.32;;;0.90;;
60831;SDS011;46665;51.558;-0.448;2022-11-20T11:42:32;9.38;;;1.52;;
60831;SDS011;46665;51.558;-0.448;2022-11-20T11:45:17;1.13;;;0.50;;
60831;SDS011;46665;51.558;-0.448;2022-11-20T11:48:01;8.13;;;1.17;;
60831;SDS011;46665;51.558;-0.448;2022-11-20T11:50:48;3.08;;;0.98;;
60831;SDS011;46665;51.558;-0.448;2022-11-20T11:53:33;5.20;;;1.60;;
60831;SDS011;46665;51.558;-0.448;2022-11-20T11:56:24;1.30;;;0.60;;
60831;SDS011;46665;51.558;-0.448;2022-11-20T11:59:12;3.83;;;0.50;;
60831;SDS011;46665;51.558;-0.448;2022-11-20T12:02:32;25.88;;;2.25;;
60831;SDS011;46665;51.558;-0.448;2022-11-20T12:05:26;6.88;;;0.93;;
60831;SDS011;46665;51.558;-0.448;2022-11-20T12:14:13;16.00;;;1.35;;
60831;SDS011;46665;51.558;-0.448;2022-11-20T12:17:00;1.63;;;0.90;;
60831;SDS011;46665;51.558;-0.448;2022-11-20T12:19:45;0.60;;;0.60;;
60831;SDS011;46665;51.558;-0.448;2022-11-20T12:22:48;8.15;;;0.73;;
60831;SDS011;46665;51.558;-0.448;2022-11-20T12:25:48;0.77;;;0.40;;
60831;SDS011;46665;51.558;-0.448;2022-11-20T12:28:44;0.73;;;0.60;;
60831;SDS011;46665;51.558;-0.448;2022-11-20T12:34:54;3.33;;;1.10;;
60831;SDS011;46665;51.558;-0.448;2022-11-20T12:37:46;12.50;;;0.75;;
60831;SDS011;46665;51.558;-0.448;2022-11-20T12:40:46;19.17;;;1.42;;
60831;SDS011;46665;51.558;-0.448;2022-11-20T12:44:01;2.80;;;0.95;;
60831;SDS011;46665;51.558;-0.448;2022-11-20T13:08:39;1.10;;;0.77;;
60831;SDS011;46665;51.558;-0.448;2022-11-20T13:11:34;2.70;;;0.80;;
60831;SDS011;46665;51.558;-0.448;2022-11-20T13:17:30;2.35;;;0.77;;
60831;SDS011;46665;51.558;-0.448;2022-11-20T13:20:21;0.63;;;0.63;;
60831;SDS011;46665;51.558;-0.448;2022-11-20T13:23:05;1.08;;;0.77;;
60831;SDS011;46665;51.558;-0.448;2022-11-20T13:25:49;2.92;;;0.65;;
60831;SDS011;46665;51.558;-0.448;2022-11-20T13:28:33;1.00;;;0.68;;
60831;SDS011;46665;51.558;-0.448;2022-11-20T13:31:38;3.50;;;0.70;;
60831;SDS011;46665;51.558;-0.448;2022-11-20T13:34:26;3.75;;;1.30;;
60831;SDS011;46665;51.558;-0.448;2022-11-20T13:37:24;0.80;;;0.77;;
60831;SDS011;46665;51.558;-0.448;2022-11-20T13:40:20;2.55;;;1.23;;
60831;SDS011;46665;51.558;-0.448;2022-11-20T13:46:17;0.73;;;0.60;;
60831;SDS011;46665;51.558;-0.448;2022-11-20T13:49:41;9.93;;;0.63;;
60831;SDS011;46665;51.558;-0.448;2022-11-20T13:55:58;4.38;;;1.20;;
60831;SDS011;46665;51.558;-0.448;2022-11-20T13:58:59;2.83;;;0.70;;
60831;SDS011;46665;51.558;-0.448;2022-11-20T14:01:52;4.43;;;0.60;;
60831;SDS011;46665;51.558;-0.448;2022-11-20T14:04:38;7.63;;;0.98;;
60831;SDS011;46665;51.558;-0.448;2022-11-20T14:07:32;1.05;;;0.95;;
60831;SDS011;46665;51.558;-0.448;2022-11-20T14:10:22;4.88;;;1.25;;
60831;SDS011;46665;51.558;-0.448;2022-11-20T14:13:18;1.05;;;0.80;;
60831;SDS011;46665;51.558;-0.448;2022-11-20T14:16:03;9.48;;;1.05;;
60831;SDS011;46665;51.558;-0.448;2022-11-20T14:18:47;4.30;;;0.85;;
60831;SDS011;46665;51.558;-0.448;2022-11-20T14:21:31;4.63;;;0.82;;
60831;SDS011;46665;51.558;-0.448;2022-11-20T14:24:18;9.48;;;1.00;;
60831;SDS011;46665;51.558;-0.448;2022-11-20T14:27:04;11.55;;;1.38;;
60831;SDS011;46665;51.558;-0.448;2022-11-20T14:29:48;5.55;;;1.40;;
60831;SDS011;46665;51.558;-0.448;2022-11-20T14:32:34;4.93;;;1.00;;
60831;SDS011;46665;51.558;-0.448;2022-11-20T14:35:25;8.20;;;1.85;;
60831;SDS011;46665;51.558;-0.448;2022-11-20T14:38:13;3.25;;;0.88;;
60831;SDS011;46665;51.558;-0.448;2022-11-20T14:41:07;2.42;;;0.57;;
60831;SDS011;46665;51.558;-0.448;2022-11-20T14:43:54;1.65;;;0.60;;
60831;SDS011;46665;51.558;-0.448;2022-11-20T14:46:41;1.88;;;0.77;;
60831;SDS011;46665;51.558;-0.448;2022-11-20T14:49:26;11.88;;;0.85;;
60831;SDS011;46665;51.558;-0.448;2022-11-20T14:52:23;14.98;;;1.17;;
60831;SDS011;46665;51.558;-0.448;2022-11-20T14:55:13;2.83;;;0.70;;
60831;SDS011;46665;51.558;-0.448;2022-11-20T14:58:02;6.45;;;1.55;;
60831;SDS011;46665;51.558;-0.448;2022-11-20T15:01:05;5.40;;;1.10;;
60831;SDS011;46665;51.558;-0.448;2022-11-20T15:03:57;7.03;;;1.27;;
60831;SDS011;46665;51.558;-0.448;2022-11-20T15:06:52;2.22;;;0.63;;
60831;SDS011;46665;51.558;-0.448;2022-11-20T15:09:38;3.08;;;0.90;;
60831;SDS011;46665;51.558;-0.448;2022-11-20T15:12:22;0.50;;;0.50;;
60831;SDS011;46665;51.558;-0.448;2022-11-20T15:15:09;3.40;;;0.63;;
60831;SDS011;46665;51.558;-0.448;2022-11-20T15:17:55;4.47;;;1.10;;
60831;SDS011;46665;51.558;-0.448;2022-11-20T15:20:40;2.03;;;1.02;;
60831;SDS011;46665;51.558;-0.448;2022-11-20T15:23:25;5.07;;;1.30;;
60831;SDS011;46665;51.558;-0.448;2022-11-20T15:26:11;7.97;;;0.77;;
60831;SDS011;46665;51.558;-0.448;2022-11-20T15:28:57;2.55;;;0.65;;
60831;SDS011;46665;51.558;-0.448;2022-11-20T15:31:42;1.33;;;0.60;;
60831;SDS011;46665;51.558;-0.448;2022-11-20T15:34:28;1.35;;;0.68;;
60831;SDS011;46665;51.558;-0.448;2022-11-20T15:37:12;0.80;;;0.80;;
60831;SDS011;46665;51.558;-0.448;2022-11-20T15:39:56;1.92;;;0.68;;
60831;SDS011;46665;51.558;-0.448;2022-11-20T15:42:40;2.38;;;0.93;;
60831;SDS011;46665;51.558;-0.448;2022-11-20T15:45:56;1.27;;;0.60;;
60831;SDS011;46665;51.558;-0.448;2022-11-20T15:48:44;0.52;;;0.50;;
60831;SDS011;46665;51.558;-0.448;2022-11-20T15:51:35;1.88;;;0.40;;
60831;SDS011;46665;51.558;-0.448;2022-11-20T15:54:21;3.08;;;0.65;;
60831;SDS011;46665;51.558;-0.448;2022-11-20T15:57:06;3.40;;;0.75;;
60831;SDS011;46665;51.558;-0.448;2022-11-20T15:59:49;0.50;;;0.50;;
60831;SDS011;46665;51.558;-0.448;2022-11-20T16:02:33;2.92;;;0.63;;
60831;SDS011;46665;51.558;-0.448;2022-11-20T16:05:17;0.43;;;0.43;;
60831;SDS011;46665;51.558;-0.448;2022-11-20T16:08:01;2.60;;;0.52;;
60831;SDS011;46665;51.558;-0.448;2022-11-20T16:10:45;0.82;;;0.55;;
60831;SDS011;46665;51.558;-0.448;2022-11-20T16:13:30;8.10;;;1.08;;
60831;SDS011;46665;51.558;-0.448;2022-11-20T16:16:35;3.25;;;0.70;;
60831;SDS011;46665;51.558;-0.448;2022-11-20T16:19:20;0.50;;;0.50;;
60831;SDS011;46665;51.558;-0.448;2022-11-20T16:22:04;1.00;;;0.73;;
60831;SDS011;46665;51.558;-0.448;2022-11-20T16:24:47;9.65;;;0.93;;
60831;SDS011;46665;51.558;-0.448;2022-11-20T16:27:31;3.60;;;1.08;;
60831;SDS011;46665;51.558;-0.448;2022-11-20T16:30:15;0.60;;;0.40;;
60831;SDS011;46665;51.558;-0.448;2022-11-20T16:33:00;2.20;;;0.73;;
60831;SDS011;46665;51.558;-0.448;2022-11-20T16:35:44;0.40;;;0.40;;
60831;SDS011;46665;51.558;-0.448;2022-11-20T16:38:28;2.08;;;0.82;;
60831;SDS011;46665;51.558;-0.448;2022-11-20T16:41:11;1.10;;;0.70;;
60831;SDS011;46665;51.558;-0.448;2022-11-20T16:44:02;0.82;;;0.40;;
60831;SDS011;46665;51.558;-0.448;2022-11-20T16:46:50;6.50;;;0.88;;
60831;SDS011;46665;51.558;-0.448;2022-11-20T16:49:34;0.82;;;0.82;;
60831;SDS011;46665;51.558;-0.448;2022-11-20T16:52:18;0.40;;;0.40;;
60831;SDS011;46665;51.558;-0.448;2022-11-20T16:55:02;2.05;;;0.77;;
60831;SDS011;46665;51.558;-0.448;2022-11-20T16:57:46;2.90;;;0.65;;
60831;SDS011;46665;51.558;-0.448;2022-11-20T17:00:30;7.38;;;1.10;;
60831;SDS011;46665;51.558;-0.448;2022-11-20T17:03:14;2.53;;;0.88;;
60831;SDS011;46665;51.558;-0.448;2022-11-20T17:06:00;0.93;;;0.70;;
60831;SDS011;46665;51.558;-0.448;2022-11-20T17:08:44;14.40;;;2.45;;
60831;SDS011;46665;51.558;-0.448;2022-11-20T17:11:29;2.67;;;0.93;;
60831;SDS011;46665;51.558;-0.448;2022-11-20T17:14:13;1.73;;;0.60;;
60831;SDS011;46665;51.558;-0.448;2022-11-20T17:16:57;1.70;;;0.65;;
60831;SDS011;46665;51.558;-0.448;2022-11-20T17:19:41;7.53;;;0.70;;
60831;SDS011;46665;51.558;-0.448;2022-11-20T17:22:25;3.28;;;0.60;;
60831;SDS011;46665;51.558;-0.448;2022-11-20T17:25:10;1.05;;;0.45;;
60831;SDS011;46665;51.558;-0.448;2022-11-20T17:27:54;1.20;;;0.40;;
60831;SDS011;46665;51.558;-0.448;2022-11-20T17:30:38;2.15;;;0.95;;
60831;SDS011;46665;51.558;-0.448;2022-11-20T17:33:22;0.80;;;0.75;;
60831;SDS011;46665;51.558;-0.448;2022-11-20T17:36:07;0.30;;;0.30;;
60831;SDS011;46665;51.558;-0.448;2022-11-20T17:38:52;1.15;;;0.93;;
60831;SDS011;46665;51.558;-0.448;2022-11-20T17:41:37;5.38;;;0.65;;
60831;SDS011;46665;51.558;-0.448;2022-11-20T17:44:21;13.35;;;0.98;;
60831;SDS011;46665;51.558;-0.448;2022-11-20T17:47:05;4.22;;;0.95;;
60831;SDS011;46665;51.558;-0.448;2022-11-20T17:49:49;0.55;;;0.55;;
60831;SDS011;46665;51.558;-0.448;2022-11-20T17:52:33;2.72;;;0.60;;